Oretech, Oregon
Current Conditions -  °F | °C
As of 3:53 PM on Saturday 25 Oct 2014 (Local Time) from KLMT Reporting Station
Light Rain Light Rain  
Wind Chill: 52°   Ceiling: 4700
Heat Index: 52°   Visibility: 10mi
Dew Point: 40°   Wind: 39mph
Humidity: 63%   Direction: 210°SSW
Pressure: 29.83"   Gusts: 53mph
Location:  42.2527°N, 121.834°W
Report Text: KLMT 252253Z 21034G46KT 10SM -RA OVC047 11/04 A2983 RMK AO2 PK WND 21046/2252 LTG DSNT W RAB45 PRESRR SLP080 P0000 T01110044
Loading
Personal Weather Stations






























Interactive Weather Map
Tropical Storm Tracking
New forecast layout! Learn more

10-Day Weather Forecast

Advertisements
Track Severe Weather on mobile